sensor_id;sensor_type;location;lat;lon;timestamp;pressure;altitude;pressure_sealevel;temperature
13219;BMP180;6674;49.152;11.918;2022-09-20T00:01:27;96291.09;;;9.29
13219;BMP180;6674;49.152;11.918;2022-09-20T00:03:55;96277.44;;;9.35
13219;BMP180;6674;49.152;11.918;2022-09-20T00:06:24;96285.75;;;9.24
13219;BMP180;6674;49.152;11.918;2022-09-20T00:08:51;96291.09;;;9.29
13219;BMP180;6674;49.152;11.918;2022-09-20T00:11:20;96288.13;;;9.26
13219;BMP180;6674;49.152;11.918;2022-09-20T00:13:49;96286.94;;;9.28
13219;BMP180;6674;49.152;11.918;2022-09-20T00:16:18;96283.38;;;9.29
13219;BMP180;6674;49.152;11.918;2022-09-20T00:18:47;96286.56;;;9.25
13219;BMP180;6674;49.152;11.918;2022-09-20T00:21:15;96284.56;;;9.27
13219;BMP180;6674;49.152;11.918;2022-09-20T00:23:42;96290.50;;;9.27
13219;BMP180;6674;49.152;11.918;2022-09-20T00:26:08;96297.63;;;9.25
13219;BMP180;6674;49.152;11.918;2022-09-20T00:28:35;96290.91;;;9.24
13219;BMP180;6674;49.152;11.918;2022-09-20T00:31:03;96284.78;;;9.19
13219;BMP180;6674;49.152;11.918;2022-09-20T00:33:31;96285.34;;;9.14
13219;BMP180;6674;49.152;11.918;2022-09-20T00:36:12;96282.78;;;9.14
13219;BMP180;6674;49.152;11.918;2022-09-20T00:38:39;96276.84;;;9.20
13219;BMP180;6674;49.152;11.918;2022-09-20T00:41:05;96283.97;;;9.18
13219;BMP180;6674;49.152;11.918;2022-09-20T00:43:37;96273.69;;;9.18
13219;BMP180;6674;49.152;11.918;2022-09-20T00:46:16;96274.88;;;9.09
13219;BMP180;6674;49.152;11.918;2022-09-20T00:48:44;96270.50;;;9.10
13219;BMP180;6674;49.152;11.918;2022-09-20T00:51:15;96278.84;;;9.05
13219;BMP180;6674;49.152;11.918;2022-09-20T00:53:46;96280.59;;;8.99
13219;BMP180;6674;49.152;11.918;2022-09-20T00:56:17;96278.84;;;8.93
13219;BMP180;6674;49.152;11.918;2022-09-20T00:58:53;96282.59;;;9.03
13219;BMP180;6674;49.152;11.918;2022-09-20T01:01:25;96280.78;;;9.03
13219;BMP180;6674;49.152;11.918;2022-09-20T01:03:52;96279.22;;;9.02
13219;BMP180;6674;49.152;11.918;2022-09-20T01:06:19;96278.66;;;9.01
13219;BMP180;6674;49.152;11.918;2022-09-20T01:08:49;96280.22;;;9.08
13219;BMP180;6674;49.152;11.918;2022-09-20T01:11:17;96291.72;;;9.05
13219;BMP180;6674;49.152;11.918;2022-09-20T01:13:43;96285.56;;;9.06
13219;BMP180;6674;49.152;11.918;2022-09-20T01:16:11;96290.50;;;9.02
13219;BMP180;6674;49.152;11.918;2022-09-20T01:18:42;96284.78;;;9.00
13219;BMP180;6674;49.152;11.918;2022-09-20T01:21:09;96287.34;;;9.00
13219;BMP180;6674;49.152;11.918;2022-09-20T01:23:47;96298.59;;;8.99
13219;BMP180;6674;49.152;11.918;2022-09-20T01:26:28;96290.69;;;8.94
13219;BMP180;6674;49.152;11.918;2022-09-20T01:29:08;96285.97;;;8.97
13219;BMP180;6674;49.152;11.918;2022-09-20T01:31:43;96273.31;;;9.02
13219;BMP180;6674;49.152;11.918;2022-09-20T01:34:13;96272.09;;;8.98
13219;BMP180;6674;49.152;11.918;2022-09-20T01:36:43;96279.63;;;9.00
13219;BMP180;6674;49.152;11.918;2022-09-20T01:39:22;96274.09;;;9.02
13219;BMP180;6674;49.152;11.918;2022-09-20T01:41:56;96275.25;;;9.06
13219;BMP180;6674;49.152;11.918;2022-09-20T01:44:30;96281.22;;;9.01
13219;BMP180;6674;49.152;11.918;2022-09-20T01:47:03;96276.06;;;9.07
13219;BMP180;6674;49.152;11.918;2022-09-20T01:49:40;96277.63;;;9.08
13219;BMP180;6674;49.152;11.918;2022-09-20T01:52:49;96278.84;;;9.05
13219;BMP180;6674;49.152;11.918;2022-09-20T01:55:43;96271.31;;;9.04
13219;BMP180;6674;49.152;11.918;2022-09-20T02:01:36;96283.16;;;8.99
13219;BMP180;6674;49.152;11.918;2022-09-20T02:04:32;96281.81;;;9.09
13219;BMP180;6674;49.152;11.918;2022-09-20T02:07:30;96288.94;;;9.13
13219;BMP180;6674;49.152;11.918;2022-09-20T02:10:13;96291.28;;;9.15
13219;BMP180;6674;49.152;11.918;2022-09-20T02:12:52;96290.91;;;9.11
13219;BMP180;6674;49.152;11.918;2022-09-20T02:15:38;96285.56;;;9.19
13219;BMP180;6674;49.152;11.918;2022-09-20T02:18:18;96282.19;;;9.19
13219;BMP180;6674;49.152;11.918;2022-09-20T02:20:51;96285.75;;;9.24
13219;BMP180;6674;49.152;11.918;2022-09-20T02:23:29;96283.16;;;9.24
13219;BMP180;6674;49.152;11.918;2022-09-20T02:26:07;96281.59;;;9.23
13219;BMP180;6674;49.152;11.918;2022-09-20T02:28:48;96278.03;;;9.24
13219;BMP180;6674;49.152;11.918;2022-09-20T02:31:27;96282.97;;;9.26
13219;BMP180;6674;49.152;11.918;2022-09-20T02:37:00;96280.78;;;9.16
13219;BMP180;6674;49.152;11.918;2022-09-20T02:39:35;96285.94;;;9.10
13219;BMP180;6674;49.152;11.918;2022-09-20T02:42:08;96289.53;;;9.09
13219;BMP180;6674;49.152;11.918;2022-09-20T02:44:46;96284.78;;;9.19
13219;BMP180;6674;49.152;11.918;2022-09-20T02:47:20;96287.16;;;9.20
13219;BMP180;6674;49.152;11.918;2022-09-20T02:49:57;96295.25;;;9.17
13219;BMP180;6674;49.152;11.918;2022-09-20T02:52:31;96285.16;;;9.22
13219;BMP180;6674;49.152;11.918;2022-09-20T02:55:06;96291.91;;;9.23
13219;BMP180;6674;49.152;11.918;2022-09-20T02:57:43;96290.91;;;9.24
13219;BMP180;6674;49.152;11.918;2022-09-20T03:00:17;96285.75;;;9.24
13219;BMP180;6674;49.152;11.918;2022-09-20T03:02:55;96280.78;;;9.29
13219;BMP180;6674;49.152;11.918;2022-09-20T03:05:31;96283.97;;;9.31
13219;BMP180;6674;49.152;11.918;2022-09-20T03:08:14;96291.66;;;9.38
13219;BMP180;6674;49.152;11.918;2022-09-20T03:10:51;96297.44;;;9.33
13219;BMP180;6674;49.152;11.918;2022-09-20T03:13:27;96295.25;;;9.30
13219;BMP180;6674;49.152;11.918;2022-09-20T03:16:02;96297.44;;;9.40
13219;BMP180;6674;49.152;11.918;2022-09-20T03:18:40;96302.97;;;9.43
13219;BMP180;6674;49.152;11.918;2022-09-20T03:21:27;96309.28;;;9.47
13219;BMP180;6674;49.152;11.918;2022-09-20T03:24:07;96303.75;;;9.50
13219;BMP180;6674;49.152;11.918;2022-09-20T03:26:48;96302.00;;;9.31
13219;BMP180;6674;49.152;11.918;2022-09-20T03:29:24;96313.47;;;9.42
13219;BMP180;6674;49.152;11.918;2022-09-20T03:32:08;96300.78;;;9.46
13219;BMP180;6674;49.152;11.918;2022-09-20T03:34:46;96306.53;;;9.42
13219;BMP180;6674;49.152;11.918;2022-09-20T03:37:28;96298.63;;;9.37
13219;BMP180;6674;49.152;11.918;2022-09-20T03:40:22;96294.66;;;9.35
13219;BMP180;6674;49.152;11.918;2022-09-20T03:42:51;96301.78;;;9.39
13219;BMP180;6674;49.152;11.918;2022-09-20T03:45:37;96297.03;;;9.43
13219;BMP180;6674;49.152;11.918;2022-09-20T03:48:29;96302.19;;;9.43
13219;BMP180;6674;49.152;11.918;2022-09-20T03:51:12;96292.28;;;9.46
13219;BMP180;6674;49.152;11.918;2022-09-20T03:54:12;96302.56;;;9.46
13219;BMP180;6674;49.152;11.918;2022-09-20T03:56:58;96290.47;;;9.46
13219;BMP180;6674;49.152;11.918;2022-09-20T03:59:44;96293.44;;;9.50
13219;BMP180;6674;49.152;11.918;2022-09-20T04:02:35;96287.72;;;9.48
13219;BMP180;6674;49.152;11.918;2022-09-20T04:05:06;96290.69;;;9.45
13219;BMP180;6674;49.152;11.918;2022-09-20T04:07:44;96294.84;;;9.46
13219;BMP180;6674;49.152;11.918;2022-09-20T04:10:28;96296.81;;;9.50
13219;BMP180;6674;49.152;11.918;2022-09-20T04:13:06;96296.22;;;9.48
13219;BMP180;6674;49.152;11.918;2022-09-20T04:15:45;96305.16;;;9.52
13219;BMP180;6674;49.152;11.918;2022-09-20T04:18:22;96310.09;;;9.54
13219;BMP180;6674;49.152;11.918;2022-09-20T04:20:56;96301.94;;;9.57
13219;BMP180;6674;49.152;11.918;2022-09-20T04:23:35;96313.25;;;9.56
13219;BMP180;6674;49.152;11.918;2022-09-20T04:26:05;96298.19;;;9.53
13219;BMP180;6674;49.152;11.918;2022-09-20T04:28:35;96309.69;;;9.57
13219;BMP180;6674;49.152;11.918;2022-09-20T04:31:13;96310.69;;;9.56
13219;BMP180;6674;49.152;11.918;2022-09-20T04:33:47;96305.75;;;9.48
13219;BMP180;6674;49.152;11.918;2022-09-20T04:36:24;96308.69;;;9.51
13219;BMP180;6674;49.152;11.918;2022-09-20T04:39:02;96315.84;;;9.49
13219;BMP180;6674;49.152;11.918;2022-09-20T04:42:04;96318.41;;;9.56
13219;BMP180;6674;49.152;11.918;2022-09-20T04:44:53;96313.25;;;9.56
13219;BMP180;6674;49.152;11.918;2022-09-20T04:47:46;96316.03;;;9.54
13219;BMP180;6674;49.152;11.918;2022-09-20T04:50:42;96316.22;;;9.53
13219;BMP180;6674;49.152;11.918;2022-09-20T04:53:36;96315.25;;;9.54
13219;BMP180;6674;49.152;11.918;2022-09-20T04:56:18;96326.34;;;9.48
13219;BMP180;6674;49.152;11.918;2022-09-20T04:59:00;96323.19;;;9.46
13219;BMP180;6674;49.152;11.918;2022-09-20T05:01:56;96318.81;;;9.46
13219;BMP180;6674;49.152;11.918;2022-09-20T05:04:45;96327.53;;;9.39
13219;BMP180;6674;49.152;11.918;2022-09-20T05:13:56;96334.25;;;9.59
13219;BMP180;6674;49.152;11.918;2022-09-20T05:16:36;96326.31;;;9.61
13219;BMP180;6674;49.152;11.918;2022-09-20T05:19:23;96333.06;;;9.55
13219;BMP180;6674;49.152;11.918;2022-09-20T05:22:05;96338.00;;;9.63
13219;BMP180;6674;49.152;11.918;2022-09-20T05:24:58;96339.59;;;9.58
13219;BMP180;6674;49.152;11.918;2022-09-20T05:27:37;96345.91;;;9.62
13219;BMP180;6674;49.152;11.918;2022-09-20T05:30:13;96344.34;;;9.61
13219;BMP180;6674;49.152;11.918;2022-09-20T05:32:44;96351.50;;;9.59
13219;BMP180;6674;49.152;11.918;2022-09-20T05:35:18;96348.31;;;9.57
13219;BMP180;6674;49.152;11.918;2022-09-20T05:37:50;96344.75;;;9.51
13219;BMP180;6674;49.152;11.918;2022-09-20T05:40:27;96346.72;;;9.56
13219;BMP180;6674;49.152;11.918;2022-09-20T05:42:58;96355.25;;;9.56
13219;BMP180;6674;49.152;11.918;2022-09-20T05:45:47;96360.19;;;9.51
13219;BMP180;6674;49.152;11.918;2022-09-20T05:48:22;96359.63;;;9.56
13219;BMP180;6674;49.152;11.918;2022-09-20T05:50:55;96360.78;;;9.53
13219;BMP180;6674;49.152;11.918;2022-09-20T05:53:49;96356.84;;;9.51
13219;BMP180;6674;49.152;11.918;2022-09-20T05:56:30;96350.88;;;9.57
13219;BMP180;6674;49.152;11.918;2022-09-20T05:59:19;96358.78;;;9.62
13219;BMP180;6674;49.152;11.918;2022-09-20T06:01:59;96361.38;;;9.55
13219;BMP180;6674;49.152;11.918;2022-09-20T06:04:30;96370.09;;;9.54
13219;BMP180;6674;49.152;11.918;2022-09-20T06:07:05;96370.09;;;9.61
13219;BMP180;6674;49.152;11.918;2022-09-20T06:12:32;96375.84;;;9.63
13219;BMP180;6674;49.152;11.918;2022-09-20T06:15:11;96366.72;;;9.67
13219;BMP180;6674;49.152;11.918;2022-09-20T06:17:47;96363.56;;;9.65
13219;BMP180;6674;49.152;11.918;2022-09-20T06:20:24;96371.09;;;9.47
13219;BMP180;6674;49.152;11.918;2022-09-20T06:22:54;96370.69;;;9.63
13219;BMP180;6674;49.152;11.918;2022-09-20T06:25:25;96364.97;;;9.61
13219;BMP180;6674;49.152;11.918;2022-09-20T06:27:59;96369.09;;;9.81
13219;BMP180;6674;49.152;11.918;2022-09-20T06:30:29;96369.47;;;9.85
13219;BMP180;6674;49.152;11.918;2022-09-20T06:32:59;96365.72;;;9.81
13219;BMP180;6674;49.152;11.918;2022-09-20T06:35:32;96371.84;;;9.73
13219;BMP180;6674;49.152;11.918;2022-09-20T06:38:06;96369.91;;;9.82
13219;BMP180;6674;49.152;11.918;2022-09-20T06:40:54;96368.28;;;9.87
13219;BMP180;6674;49.152;11.918;2022-09-20T06:43:39;96377.63;;;9.94
13219;BMP180;6674;49.152;11.918;2022-09-20T06:46:06;96376.22;;;9.98
13219;BMP180;6674;49.152;11.918;2022-09-20T06:48:34;96377.19;;;10.04
13219;BMP180;6674;49.152;11.918;2022-09-20T06:51:05;96381.38;;;9.92
13219;BMP180;6674;49.152;11.918;2022-09-20T06:53:34;96378.63;;;9.93
13219;BMP180;6674;49.152;11.918;2022-09-20T06:56:03;96366.28;;;10.08
13219;BMP180;6674;49.152;11.918;2022-09-20T06:58:29;96373.06;;;9.96
13219;BMP180;6674;49.152;11.918;2022-09-20T07:00:56;96370.69;;;9.95
13219;BMP180;6674;49.152;11.918;2022-09-20T07:03:23;96382.19;;;9.92
13219;BMP180;6674;49.152;11.918;2022-09-20T07:05:51;96381.78;;;10.02
13219;BMP180;6674;49.152;11.918;2022-09-20T07:08:18;96387.69;;;10.02
13219;BMP180;6674;49.152;11.918;2022-09-20T07:10:44;96375.41;;;10.11
13219;BMP180;6674;49.152;11.918;2022-09-20T07:13:11;96372.00;;;10.17
13219;BMP180;6674;49.152;11.918;2022-09-20T07:15:39;96372.63;;;10.12
13219;BMP180;6674;49.152;11.918;2022-09-20T07:18:06;96373.63;;;10.11
13219;BMP180;6674;49.152;11.918;2022-09-20T07:20:33;96368.28;;;10.06
13219;BMP180;6674;49.152;11.918;2022-09-20T07:23:01;96379.00;;;10.03
13219;BMP180;6674;49.152;11.918;2022-09-20T07:25:28;96372.84;;;10.04
13219;BMP180;6674;49.152;11.918;2022-09-20T07:27:55;96379.78;;;9.97
13219;BMP180;6674;49.152;11.918;2022-09-20T07:30:23;96378.81;;;9.98
13219;BMP180;6674;49.152;11.918;2022-09-20T07:32:49;96384.16;;;9.97
13219;BMP180;6674;49.152;11.918;2022-09-20T07:35:22;96391.09;;;10.09
13219;BMP180;6674;49.152;11.918;2022-09-20T07:37:55;96386.13;;;10.01
13219;BMP180;6674;49.152;11.918;2022-09-20T07:40:23;96381.34;;;10.11
13219;BMP180;6674;49.152;11.918;2022-09-20T07:42:50;96384.50;;;10.26
13219;BMP180;6674;49.152;11.918;2022-09-20T07:45:17;96402.72;;;10.31
13219;BMP180;6674;49.152;11.918;2022-09-20T07:47:44;96395.16;;;10.36
13219;BMP180;6674;49.152;11.918;2022-09-20T07:50:10;96394.00;;;10.26
13219;BMP180;6674;49.152;11.918;2022-09-20T07:52:37;96393.63;;;10.29
13219;BMP180;6674;49.152;11.918;2022-09-20T07:55:04;96388.44;;;10.35
13219;BMP180;6674;49.152;11.918;2022-09-20T07:57:35;96396.25;;;10.59
13219;BMP180;6674;49.152;11.918;2022-09-20T08:00:04;96393.19;;;10.81
13219;BMP180;6674;49.152;11.918;2022-09-20T08:02:31;96396.41;;;10.71
13219;BMP180;6674;49.152;11.918;2022-09-20T08:04:57;96398.59;;;10.74
13219;BMP180;6674;49.152;11.918;2022-09-20T08:07:24;96391.72;;;10.55
13219;BMP180;6674;49.152;11.918;2022-09-20T08:09:51;96396.50;;;10.51
13219;BMP180;6674;49.152;11.918;2022-09-20T08:12:18;96399.06;;;10.58
13219;BMP180;6674;49.152;11.918;2022-09-20T08:14:46;96397.88;;;10.54
13219;BMP180;6674;49.152;11.918;2022-09-20T08:17:13;96398.69;;;10.48
13219;BMP180;6674;49.152;11.918;2022-09-20T08:19:41;96406.56;;;10.59
13219;BMP180;6674;49.152;11.918;2022-09-20T08:22:07;96410.75;;;10.60
13219;BMP180;6674;49.152;11.918;2022-09-20T08:24:36;96412.94;;;10.57
13219;BMP180;6674;49.152;11.918;2022-09-20T08:27:03;96410.41;;;10.44
13219;BMP180;6674;49.152;11.918;2022-09-20T08:29:30;96410.91;;;10.72
13219;BMP180;6674;49.152;11.918;2022-09-20T08:31:58;96406.22;;;10.93
13219;BMP180;6674;49.152;11.918;2022-09-20T08:34:26;96410.63;;;10.92
13219;BMP180;6674;49.152;11.918;2022-09-20T08:36:53;96405.72;;;11.15
13219;BMP180;6674;49.152;11.918;2022-09-20T08:39:21;96403.47;;;11.25
13219;BMP180;6674;49.152;11.918;2022-09-20T08:41:53;96406.28;;;11.17
13219;BMP180;6674;49.152;11.918;2022-09-20T08:44:23;96418.13;;;11.31
13219;BMP180;6674;49.152;11.918;2022-09-20T08:47:01;96413.31;;;11.41
13219;BMP180;6674;49.152;11.918;2022-09-20T08:49:32;96406.38;;;11.35
13219;BMP180;6674;49.152;11.918;2022-09-20T08:51:59;96410.16;;;11.39
13219;BMP180;6674;49.152;11.918;2022-09-20T08:54:29;96409.53;;;11.37
13219;BMP180;6674;49.152;11.918;2022-09-20T08:56:57;96408.47;;;11.20
13219;BMP180;6674;49.152;11.918;2022-09-20T08:59:27;96402.44;;;11.32
13219;BMP180;6674;49.152;11.918;2022-09-20T09:01:55;96415.81;;;11.54
13219;BMP180;6674;49.152;11.918;2022-09-20T09:04:27;96406.34;;;11.72
13219;BMP180;6674;49.152;11.918;2022-09-20T09:06:58;96405.91;;;11.75
13219;BMP180;6674;49.152;11.918;2022-09-20T09:09:27;96410.22;;;11.57
13219;BMP180;6674;49.152;11.918;2022-09-20T09:11:55;96400.09;;;11.79
13219;BMP180;6674;49.152;11.918;2022-09-20T09:14:25;96409.31;;;11.93
13219;BMP180;6674;49.152;11.918;2022-09-20T09:17:13;96403.19;;;12.12
13219;BMP180;6674;49.152;11.918;2022-09-20T09:19:45;96406.22;;;12.27
13219;BMP180;6674;49.152;11.918;2022-09-20T09:22:20;96403.34;;;12.17
13219;BMP180;6674;49.152;11.918;2022-09-20T09:25:05;96392.16;;;11.99
13219;BMP180;6674;49.152;11.918;2022-09-20T09:27:32;96398.50;;;12.03
13219;BMP180;6674;49.152;11.918;2022-09-20T09:29:59;96408.38;;;12.12
13219;BMP180;6674;49.152;11.918;2022-09-20T09:32:27;96397.81;;;12.13
13219;BMP180;6674;49.152;11.918;2022-09-20T09:34:55;96388.25;;;12.49
13219;BMP180;6674;49.152;11.918;2022-09-20T09:37:26;96374.94;;;12.64
13219;BMP180;6674;49.152;11.918;2022-09-20T09:40:06;96385.38;;;12.40
13219;BMP180;6674;49.152;11.918;2022-09-20T09:42:33;96373.22;;;12.58
13219;BMP180;6674;49.152;11.918;2022-09-20T09:45:10;96382.72;;;12.64
13219;BMP180;6674;49.152;11.918;2022-09-20T09:47:36;96386.31;;;12.45
13219;BMP180;6674;49.152;11.918;2022-09-20T09:50:04;96374.44;;;12.38
13219;BMP180;6674;49.152;11.918;2022-09-20T09:52:32;96370.84;;;12.56
13219;BMP180;6674;49.152;11.918;2022-09-20T09:55:01;96373.16;;;12.29
13219;BMP180;6674;49.152;11.918;2022-09-20T09:57:38;96375.25;;;12.20
13219;BMP180;6674;49.152;11.918;2022-09-20T10:00:11;96390.53;;;12.04
13219;BMP180;6674;49.152;11.918;2022-09-20T10:02:50;96388.25;;;12.32
13219;BMP180;6674;49.152;11.918;2022-09-20T10:05:23;96383.09;;;12.32
13219;BMP180;6674;49.152;11.918;2022-09-20T10:08:04;96372.66;;;12.38
13219;BMP180;6674;49.152;11.918;2022-09-20T10:10:39;96374.28;;;12.68
13219;BMP180;6674;49.152;11.918;2022-09-20T10:13:13;96380.47;;;12.85
13219;BMP180;6674;49.152;11.918;2022-09-20T10:15:51;96378.38;;;12.93
13219;BMP180;6674;49.152;11.918;2022-09-20T10:18:32;96375.25;;;12.56
13219;BMP180;6674;49.152;11.918;2022-09-20T10:21:15;96374.09;;;12.34
13219;BMP180;6674;49.152;11.918;2022-09-20T10:24:06;96382.06;;;12.33
13219;BMP180;6674;49.152;11.918;2022-09-20T10:27:11;96370.16;;;12.14
13219;BMP180;6674;49.152;11.918;2022-09-20T10:29:47;96373.66;;;11.77
13219;BMP180;6674;49.152;11.918;2022-09-20T10:32:27;96374.59;;;12.07
13219;BMP180;6674;49.152;11.918;2022-09-20T10:35:13;96364.69;;;12.22
13219;BMP180;6674;49.152;11.918;2022-09-20T10:37:53;96360.78;;;12.31
13219;BMP180;6674;49.152;11.918;2022-09-20T10:40:32;96367.41;;;12.09
13219;BMP180;6674;49.152;11.918;2022-09-20T10:43:23;96356.94;;;12.22
13219;BMP180;6674;49.152;11.918;2022-09-20T10:46:01;96362.16;;;12.51
13219;BMP180;6674;49.152;11.918;2022-09-20T10:48:37;96367.50;;;13.03
13219;BMP180;6674;49.152;11.918;2022-09-20T10:51:13;96360.19;;;13.11
13219;BMP180;6674;49.152;11.918;2022-09-20T10:53:49;96364.91;;;13.43
13219;BMP180;6674;49.152;11.918;2022-09-20T10:56:26;96357.69;;;13.45
13219;BMP180;6674;49.152;11.918;2022-09-20T11:02:01;96364.34;;;13.98
13219;BMP180;6674;49.152;11.918;2022-09-20T11:04:43;96375.63;;;13.70
13219;BMP180;6674;49.152;11.918;2022-09-20T11:07:16;96368.19;;;13.62
13219;BMP180;6674;49.152;11.918;2022-09-20T11:09:48;96374.44;;;13.43
13219;BMP180;6674;49.152;11.918;2022-09-20T11:12:22;96375.69;;;13.40
13219;BMP180;6674;49.152;11.918;2022-09-20T11:14:52;96390.22;;;13.41
13219;BMP180;6674;49.152;11.918;2022-09-20T11:17:23;96392.47;;;12.62
13219;BMP180;6674;49.152;11.918;2022-09-20T11:19:56;96399.47;;;12.26
13219;BMP180;6674;49.152;11.918;2022-09-20T11:22:28;96404.03;;;12.06
13219;BMP180;6674;49.152;11.918;2022-09-20T11:25:01;96410.22;;;12.23
13219;BMP180;6674;49.152;11.918;2022-09-20T11:27:32;96405.47;;;12.20
13219;BMP180;6674;49.152;11.918;2022-09-20T11:30:06;96408.38;;;12.12
13219;BMP180;6674;49.152;11.918;2022-09-20T11:32:42;96406.59;;;11.88
13219;BMP180;6674;49.152;11.918;2022-09-20T11:35:20;96411.53;;;12.14
13219;BMP180;6674;49.152;11.918;2022-09-20T11:37:52;96414.75;;;12.27
13219;BMP180;6674;49.152;11.918;2022-09-20T11:40:25;96414.41;;;12.59
13219;BMP180;6674;49.152;11.918;2022-09-20T11:42:56;96395.38;;;13.01
13219;BMP180;6674;49.152;11.918;2022-09-20T11:45:25;96401.59;;;13.00
13219;BMP180;6674;49.152;11.918;2022-09-20T11:47:56;96398.91;;;13.36
13219;BMP180;6674;49.152;11.918;2022-09-20T11:53:51;96375.09;;;14.02
13219;BMP180;6674;49.152;11.918;2022-09-20T11:56:21;96376.75;;;14.30
13219;BMP180;6674;49.152;11.918;2022-09-20T11:58:51;96379.56;;;14.40
13219;BMP180;6674;49.152;11.918;2022-09-20T12:01:25;96377.22;;;14.16
13219;BMP180;6674;49.152;11.918;2022-09-20T12:03:54;96374.63;;;14.27
13219;BMP180;6674;49.152;11.918;2022-09-20T12:06:29;96372.28;;;14.15
13219;BMP180;6674;49.152;11.918;2022-09-20T12:09:00;96370.78;;;13.73
13219;BMP180;6674;49.152;11.918;2022-09-20T12:11:30;96370.44;;;13.70
13219;BMP180;6674;49.152;11.918;2022-09-20T12:14:02;96361.19;;;13.74
13219;BMP180;6674;49.152;11.918;2022-09-20T12:16:39;96360.63;;;13.60
13219;BMP180;6674;49.152;11.918;2022-09-20T12:19:09;96363.13;;;13.89
13219;BMP180;6674;49.152;11.918;2022-09-20T12:24:40;96356.00;;;13.62
13219;BMP180;6674;49.152;11.918;2022-09-20T12:27:20;96374.66;;;12.54
13219;BMP180;6674;49.152;11.918;2022-09-20T12:32:47;96375.19;;;12.27
13219;BMP180;6674;49.152;11.918;2022-09-20T12:38:34;96383.91;;;11.90
13219;BMP180;6674;49.152;11.918;2022-09-20T12:41:08;96381.78;;;11.57
13219;BMP180;6674;49.152;11.918;2022-09-20T12:43:47;96390.25;;;11.70
13219;BMP180;6674;49.152;11.918;2022-09-20T12:46:30;96389.22;;;11.71
13219;BMP180;6674;49.152;11.918;2022-09-20T12:49:22;96388.81;;;11.74
13219;BMP180;6674;49.152;11.918;2022-09-20T12:52:30;96387.06;;;11.68
13219;BMP180;6674;49.152;11.918;2022-09-20T12:55:51;96393.38;;;11.96
13219;BMP180;6674;49.152;11.918;2022-09-20T12:58:36;96394.19;;;11.72
13219;BMP180;6674;49.152;11.918;2022-09-20T13:01:31;96392.69;;;11.34
13219;BMP180;6674;49.152;11.918;2022-09-20T13:10:23;96397.28;;;11.32
13219;BMP180;6674;49.152;11.918;2022-09-20T13:12:56;96391.88;;;11.34
13219;BMP180;6674;49.152;11.918;2022-09-20T13:15:24;96377.91;;;11.48
13219;BMP180;6674;49.152;11.918;2022-09-20T13:17:55;96385.56;;;11.61
13219;BMP180;6674;49.152;11.918;2022-09-20T13:20:26;96381.03;;;11.98
13219;BMP180;6674;49.152;11.918;2022-09-20T13:22:54;96389.03;;;12.32
13219;BMP180;6674;49.152;11.918;2022-09-20T13:25:22;96385.31;;;12.46
13219;BMP180;6674;49.152;11.918;2022-09-20T13:27:56;96381.06;;;12.34
13219;BMP180;6674;49.152;11.918;2022-09-20T13:30:27;96385.72;;;12.61
13219;BMP180;6674;49.152;11.918;2022-09-20T13:33:14;96373.31;;;12.51
13219;BMP180;6674;49.152;11.918;2022-09-20T13:35:43;96387.50;;;12.60
13219;BMP180;6674;49.152;11.918;2022-09-20T13:38:11;96380.19;;;12.75
13219;BMP180;6674;49.152;11.918;2022-09-20T13:40:45;96375.25;;;13.03
13219;BMP180;6674;49.152;11.918;2022-09-20T13:43:22;96374.97;;;12.82
13219;BMP180;6674;49.152;11.918;2022-09-20T13:45:51;96385.06;;;13.12
13219;BMP180;6674;49.152;11.918;2022-09-20T13:48:23;96383.25;;;13.42
13219;BMP180;6674;49.152;11.918;2022-09-20T13:50:51;96377.41;;;13.58
13219;BMP180;6674;49.152;11.918;2022-09-20T13:53:17;96371.78;;;13.61
13219;BMP180;6674;49.152;11.918;2022-09-20T13:55:45;96373.38;;;13.62
13219;BMP180;6674;49.152;11.918;2022-09-20T13:58:18;96367.75;;;13.76
13219;BMP180;6674;49.152;11.918;2022-09-20T14:00:47;96377.91;;;13.26
13219;BMP180;6674;49.152;11.918;2022-09-20T14:03:16;96379.59;;;13.32
13219;BMP180;6674;49.152;11.918;2022-09-20T14:05:47;96374.63;;;12.90
13219;BMP180;6674;49.152;11.918;2022-09-20T14:08:20;96373.75;;;13.25
13219;BMP180;6674;49.152;11.918;2022-09-20T14:10:49;96376.91;;;13.38
13219;BMP180;6674;49.152;11.918;2022-09-20T14:13:17;96381.31;;;13.37
13219;BMP180;6674;49.152;11.918;2022-09-20T14:15:44;96377.72;;;13.38
13219;BMP180;6674;49.152;11.918;2022-09-20T14:18:14;96380.97;;;13.34
13219;BMP180;6674;49.152;11.918;2022-09-20T14:20:44;96377.66;;;13.56
13219;BMP180;6674;49.152;11.918;2022-09-20T14:23:21;96367.97;;;13.75
13219;BMP180;6674;49.152;11.918;2022-09-20T14:26:05;96379.13;;;13.98
13219;BMP180;6674;49.152;11.918;2022-09-20T14:28:32;96374.28;;;13.90
13219;BMP180;6674;49.152;11.918;2022-09-20T14:31:05;96370.09;;;13.55
13219;BMP180;6674;49.152;11.918;2022-09-20T14:33:33;96366.59;;;13.95
13219;BMP180;6674;49.152;11.918;2022-09-20T14:36:12;96372.63;;;14.07
13219;BMP180;6674;49.152;11.918;2022-09-20T14:38:42;96371.13;;;13.88
13219;BMP180;6674;49.152;11.918;2022-09-20T14:41:10;96366.25;;;13.69
13219;BMP180;6674;49.152;11.918;2022-09-20T14:43:36;96368.97;;;13.85
13219;BMP180;6674;49.152;11.918;2022-09-20T14:46:06;96376.31;;;14.22
13219;BMP180;6674;49.152;11.918;2022-09-20T14:48:38;96371.34;;;13.64
13219;BMP180;6674;49.152;11.918;2022-09-20T14:51:18;96377.28;;;13.64
13219;BMP180;6674;49.152;11.918;2022-09-20T14:53:50;96372.59;;;13.84
13219;BMP180;6674;49.152;11.918;2022-09-20T14:56:29;96382.84;;;13.68
13219;BMP180;6674;49.152;11.918;2022-09-20T14:59:04;96383.25;;;13.42
13219;BMP180;6674;49.152;11.918;2022-09-20T15:01:31;96380.59;;;13.19
13219;BMP180;6674;49.152;11.918;2022-09-20T15:04:05;96390.81;;;13.43
13219;BMP180;6674;49.152;11.918;2022-09-20T15:06:33;96377.50;;;13.40
13219;BMP180;6674;49.152;11.918;2022-09-20T15:09:01;96387.25;;;13.27
13219;BMP180;6674;49.152;11.918;2022-09-20T15:11:28;96387.69;;;12.65
13219;BMP180;6674;49.152;11.918;2022-09-20T15:13:55;96389.47;;;12.47
13219;BMP180;6674;49.152;11.918;2022-09-20T15:16:22;96392.06;;;12.47
13219;BMP180;6674;49.152;11.918;2022-09-20T15:18:48;96401.47;;;12.77
13219;BMP180;6674;49.152;11.918;2022-09-20T15:21:15;96394.97;;;12.68
13219;BMP180;6674;49.152;11.918;2022-09-20T15:23:41;96399.81;;;12.65
13219;BMP180;6674;49.152;11.918;2022-09-20T15:26:10;96390.84;;;12.49
13219;BMP180;6674;49.152;11.918;2022-09-20T15:28:38;96399.25;;;12.63
13219;BMP180;6674;49.152;11.918;2022-09-20T15:31:05;96402.53;;;12.70
13219;BMP180;6674;49.152;11.918;2022-09-20T15:33:32;96394.44;;;12.84